createdAt,value
2022-10-16T00:01:41.154Z,20.88
2022-10-16T00:04:08.231Z,18.75
2022-10-16T00:06:35.434Z,20.88
2022-10-16T00:09:03.539Z,22.10
2022-10-16T00:11:37.627Z,21.52
2022-10-16T00:14:07.484Z,20.67
2022-10-16T00:16:35.229Z,17.17
2022-10-16T00:19:02.725Z,23.48
2022-10-16T00:21:31.373Z,19.27
2022-10-16T00:24:05.753Z,22.70
2022-10-16T00:26:35.617Z,19.55
2022-10-16T00:29:04.057Z,19.30
2022-10-16T00:31:31.209Z,23.60
2022-10-16T00:33:58.567Z,21.33
2022-10-16T00:36:27.361Z,20.98
2022-10-16T00:38:56.571Z,21.77
2022-10-16T00:41:25.215Z,21.80
2022-10-16T00:43:58.555Z,20.88
2022-10-16T00:46:42.716Z,19.70
2022-10-16T00:49:11.148Z,19.30
2022-10-16T00:51:50.720Z,18.45
2022-10-16T00:54:28.740Z,19.90
2022-10-16T00:56:57.542Z,19.10
2022-10-16T00:59:28.369Z,19.45
2022-10-16T01:01:56.038Z,20.67
2022-10-16T01:04:24.209Z,18.73
2022-10-16T01:06:54.090Z,18.35
2022-10-16T01:09:44.429Z,18.17
2022-10-16T01:12:18.653Z,18.95
2022-10-16T01:14:53.314Z,17.33
2022-10-16T01:17:29.204Z,18.83
2022-10-16T01:20:07.836Z,16.98
2022-10-16T01:22:40.388Z,18.40
2022-10-16T01:25:17.616Z,19.15
2022-10-16T01:27:47.452Z,19.75
2022-10-16T01:30:34.787Z,17.95
2022-10-16T01:33:14.784Z,17.33
2022-10-16T01:35:49.475Z,20.67
2022-10-16T01:38:36.519Z,17.38
2022-10-16T01:41:20.322Z,17.30
2022-10-16T01:43:52.301Z,17.35
2022-10-16T01:46:23.454Z,20.90
2022-10-16T01:48:52.482Z,20.23
2022-10-16T01:51:21.825Z,17.50
2022-10-16T01:53:54.206Z,18.42
2022-10-16T01:56:23.710Z,18.55
2022-10-16T01:58:58.540Z,19.10
2022-10-16T02:01:30.485Z,19.55
2022-10-16T02:04:03.142Z,18.73
2022-10-16T02:06:31.253Z,16.63
2022-10-16T02:08:58.726Z,15.30
2022-10-16T02:11:25.763Z,17.42
2022-10-16T02:14:03.888Z,16.10
2022-10-16T02:16:40.102Z,14.20
2022-10-16T02:19:08.508Z,14.85
2022-10-16T02:22:03.040Z,15.95
2022-10-16T02:24:40.424Z,15.35
2022-10-16T02:27:07.706Z,14.93
2022-10-16T02:29:39.973Z,14.93
2022-10-16T02:32:08.735Z,14.05
2022-10-16T02:34:36.301Z,16.17
2022-10-16T02:37:05.381Z,16.83
2022-10-16T02:39:32.736Z,16.80
2022-10-16T02:42:00.131Z,15.07
2022-10-16T02:44:27.026Z,15.85
2022-10-16T02:46:54.351Z,17.40
2022-10-16T02:49:21.336Z,17.95
2022-10-16T02:51:48.221Z,15.98
2022-10-16T02:54:15.238Z,17.00
2022-10-16T02:56:42.535Z,14.77
2022-10-16T02:59:09.766Z,16.08
2022-10-16T03:01:37.189Z,15.10
2022-10-16T03:04:04.390Z,17.17
2022-10-16T03:06:31.589Z,14.95
2022-10-16T03:08:59.079Z,15.32
2022-10-16T03:11:25.956Z,13.52
2022-10-16T03:13:53.010Z,13.13
2022-10-16T03:16:19.800Z,13.77
2022-10-16T03:18:50.800Z,13.00
2022-10-16T03:21:18.079Z,13.75
2022-10-16T03:23:45.710Z,12.65
2022-10-16T03:26:13.399Z,14.02
2022-10-16T03:28:40.335Z,13.02
2022-10-16T03:31:07.242Z,14.45
2022-10-16T03:33:34.045Z,15.10
2022-10-16T03:36:01.216Z,14.25
2022-10-16T03:38:27.988Z,13.63
2022-10-16T03:40:54.744Z,12.85
2022-10-16T03:43:21.586Z,13.65
2022-10-16T03:45:48.390Z,12.90
2022-10-16T03:48:15.165Z,11.90
2022-10-16T03:50:42.374Z,10.85
2022-10-16T03:53:09.111Z,12.73
2022-10-16T03:55:36.376Z,11.70
2022-10-16T03:58:03.416Z,11.48
2022-10-16T04:00:30.566Z,12.65
2022-10-16T04:02:57.459Z,10.95
2022-10-16T04:05:24.352Z,12.13
2022-10-16T04:07:51.163Z,12.32
2022-10-16T04:10:18.608Z,12.40
2022-10-16T04:12:45.391Z,11.70
2022-10-16T04:15:12.338Z,12.45
2022-10-16T04:17:39.516Z,12.23
2022-10-16T04:20:06.918Z,10.88
2022-10-16T04:22:33.819Z,12.45
2022-10-16T04:25:00.704Z,12.73
2022-10-16T04:27:27.858Z,12.38
2022-10-16T04:29:54.960Z,14.93
2022-10-16T04:32:22.040Z,12.05
2022-10-16T04:34:48.873Z,13.73
2022-10-16T04:37:15.642Z,11.68
2022-10-16T04:39:42.454Z,12.77
2022-10-16T04:42:09.739Z,12.27
2022-10-16T04:44:36.552Z,12.00
2022-10-16T04:47:03.476Z,11.18
2022-10-16T04:49:30.246Z,13.25
2022-10-16T04:51:57.523Z,11.98
2022-10-16T04:54:24.309Z,10.55
2022-10-16T04:56:52.705Z,10.82
2022-10-16T04:59:21.293Z,11.55
2022-10-16T05:01:48.098Z,11.05
2022-10-16T05:04:16.087Z,12.02
2022-10-16T05:06:43.678Z,12.98
2022-10-16T05:09:11.138Z,12.43
2022-10-16T05:11:37.992Z,12.07
2022-10-16T05:14:04.898Z,11.50
2022-10-16T05:16:32.058Z,11.27
2022-10-16T05:19:22.520Z,17.35
2022-10-16T05:21:46.654Z,14.35
2022-10-16T05:24:13.812Z,13.75
2022-10-16T05:26:41.036Z,13.40
2022-10-16T05:29:08.405Z,15.75
2022-10-16T05:31:35.640Z,13.43
2022-10-16T05:34:03.744Z,15.55
2022-10-16T05:36:31.315Z,16.08
2022-10-16T05:38:58.401Z,17.48
2022-10-16T05:41:27.233Z,17.02
2022-10-16T05:43:54.707Z,16.42
2022-10-16T05:46:22.279Z,15.30
2022-10-16T05:48:52.566Z,15.60
2022-10-16T05:51:20.280Z,14.43
2022-10-16T05:53:47.745Z,15.00
2022-10-16T05:56:15.031Z,15.73
2022-10-16T05:58:43.266Z,14.10
2022-10-16T06:01:17.100Z,13.68
2022-10-16T06:03:45.384Z,13.35
2022-10-16T06:06:15.755Z,14.63
2022-10-16T06:08:45.053Z,14.65
2022-10-16T06:11:17.137Z,21.40
2022-10-16T06:13:47.037Z,13.75
2022-10-16T06:16:14.338Z,13.23
2022-10-16T06:18:41.432Z,13.07
2022-10-16T06:21:11.031Z,13.23
2022-10-16T06:23:38.517Z,14.85
2022-10-16T06:26:11.353Z,15.13
2022-10-16T06:28:38.805Z,15.98
2022-10-16T06:31:08.489Z,15.52
2022-10-16T06:33:36.900Z,18.75
2022-10-16T06:36:09.881Z,21.95
2022-10-16T06:38:38.338Z,25.60
2022-10-16T06:41:07.557Z,21.60
2022-10-16T06:43:36.335Z,22.98
2022-10-16T06:46:05.322Z,21.13
2022-10-16T06:48:33.338Z,16.65
2022-10-16T06:58:44.167Z,16.98
2022-10-16T07:01:12.208Z,16.98
2022-10-16T07:03:40.674Z,14.85
2022-10-16T07:06:10.108Z,14.85
2022-10-16T07:08:39.713Z,14.55
2022-10-16T07:11:15.305Z,14.55
2022-10-16T07:13:43.819Z,12.73
2022-10-16T07:16:20.081Z,13.07
2022-10-16T07:18:49.471Z,12.98
2022-10-16T07:21:17.578Z,10.93
2022-10-16T07:23:44.865Z,13.57
2022-10-16T07:26:12.426Z,15.07
2022-10-16T07:28:40.883Z,12.82
2022-10-16T07:31:11.820Z,14.45
2022-10-16T07:33:39.585Z,13.10
2022-10-16T07:36:06.963Z,14.63
2022-10-16T07:38:34.167Z,14.73
2022-10-16T07:41:06.461Z,14.50
2022-10-16T07:43:34.009Z,13.68
2022-10-16T07:46:04.043Z,14.77
2022-10-16T07:48:35.887Z,17.13
2022-10-16T07:51:05.638Z,15.43
2022-10-16T07:53:33.428Z,13.35
2022-10-16T07:56:01.947Z,17.40
2022-10-16T07:58:32.068Z,14.52
2022-10-16T08:00:59.355Z,13.38
2022-10-16T08:03:26.905Z,13.05
2022-10-16T08:05:53.831Z,14.30
2022-10-16T08:08:20.840Z,12.98
2022-10-16T08:10:48.023Z,13.05
2022-10-16T08:13:16.380Z,11.60
2022-10-16T08:15:46.816Z,11.05
2022-10-16T08:18:15.186Z,10.23
2022-10-16T08:20:43.118Z,10.70
2022-10-16T08:23:12.391Z,10.77
2022-10-16T08:25:39.283Z,10.25
2022-10-16T08:28:07.666Z,10.18
2022-10-16T08:30:34.977Z,9.30
2022-10-16T08:33:02.488Z,9.75
2022-10-16T08:35:29.307Z,8.50
2022-10-16T08:37:56.147Z,7.97
2022-10-16T08:40:32.115Z,10.00
2022-10-16T08:43:31.609Z,10.43
2022-10-16T08:46:10.153Z,7.65
2022-10-16T08:48:39.474Z,8.43
2022-10-16T08:51:09.554Z,9.77
2022-10-16T08:53:50.443Z,8.60
2022-10-16T08:56:18.903Z,9.98
2022-10-16T09:01:23.930Z,9.52
2022-10-16T09:04:00.143Z,10.23
2022-10-16T09:06:43.317Z,10.48
2022-10-16T09:09:39.754Z,11.02
2022-10-16T09:12:18.897Z,10.52
2022-10-16T09:15:00.587Z,9.85
2022-10-16T09:17:36.468Z,9.10
2022-10-16T09:20:29.154Z,7.90
2022-10-16T09:23:01.666Z,8.63
2022-10-16T09:25:28.961Z,9.20
2022-10-16T09:27:56.507Z,8.68
2022-10-16T09:30:24.132Z,8.80
2022-10-16T09:32:53.996Z,8.60
2022-10-16T09:35:23.529Z,8.48
2022-10-16T09:37:55.423Z,8.18
2022-10-16T09:40:35.481Z,8.77
2022-10-16T09:43:28.598Z,8.82
2022-10-16T09:46:05.879Z,8.95
2022-10-16T09:48:40.638Z,6.50
2022-10-16T09:51:20.847Z,8.65
2022-10-16T09:53:48.267Z,9.25
2022-10-16T09:56:36.573Z,7.95
2022-10-16T09:59:32.074Z,8.57
2022-10-16T10:02:04.634Z,6.47
2022-10-16T10:04:42.146Z,8.32
2022-10-16T10:07:28.388Z,7.97
2022-10-16T10:09:58.317Z,7.22
2022-10-16T10:12:28.421Z,7.60
2022-10-16T10:15:07.311Z,7.20
2022-10-16T10:17:34.124Z,7.78
2022-10-16T10:20:26.102Z,7.85
2022-10-16T10:22:53.134Z,7.38
2022-10-16T10:25:43.065Z,6.93
2022-10-16T10:28:22.451Z,7.15
2022-10-16T10:30:52.118Z,6.75
2022-10-16T10:33:37.358Z,6.90
2022-10-16T10:36:28.649Z,7.20
2022-10-16T10:39:19.714Z,6.50
2022-10-16T10:42:17.377Z,6.50
2022-10-16T10:45:02.457Z,6.30
2022-10-16T10:47:38.211Z,6.88
2022-10-16T10:50:19.970Z,7.20
2022-10-16T10:53:11.448Z,6.75
2022-10-16T10:55:54.969Z,6.25
2022-10-16T10:58:55.944Z,5.90
2022-10-16T11:01:51.282Z,5.70
2022-10-16T11:05:00.844Z,5.88
2022-10-16T11:07:43.772Z,5.90
2022-10-16T11:10:20.369Z,6.03
2022-10-16T11:13:13.298Z,6.22
2022-10-16T11:15:43.769Z,5.85
2022-10-16T11:18:34.274Z,5.50
2022-10-16T11:21:09.846Z,6.20
2022-10-16T11:23:46.059Z,6.05
2022-10-16T11:26:18.430Z,6.18
2022-10-16T11:28:55.665Z,5.57
2022-10-16T11:31:44.135Z,5.20
2022-10-16T11:34:13.010Z,6.07
2022-10-16T11:36:58.318Z,4.95
2022-10-16T11:39:30.143Z,5.82
2022-10-16T11:42:22.028Z,5.55
2022-10-16T11:45:25.812Z,5.43
2022-10-16T11:48:00.597Z,5.70
2022-10-16T11:50:36.756Z,6.05
2022-10-16T11:53:12.431Z,6.25
2022-10-16T11:55:46.879Z,6.50
2022-10-16T11:58:23.797Z,5.35
2022-10-16T12:00:56.588Z,6.10
2022-10-16T12:03:28.720Z,5.78
2022-10-16T12:06:07.972Z,5.93
2022-10-16T12:08:36.816Z,5.30
2022-10-16T12:11:29.941Z,5.70
2022-10-16T12:14:13.330Z,5.30
2022-10-16T12:16:54.568Z,5.72
2022-10-16T12:19:23.052Z,5.90
2022-10-16T12:21:51.465Z,5.65
2022-10-16T12:24:38.748Z,5.47
2022-10-16T12:27:08.139Z,5.63
2022-10-16T12:29:43.848Z,5.95
2022-10-16T12:32:48.415Z,6.05
2022-10-16T12:35:45.556Z,5.70
2022-10-16T12:38:21.193Z,5.75
2022-10-16T12:40:58.833Z,6.30
2022-10-16T12:43:44.977Z,5.72
2022-10-16T12:46:11.888Z,6.07
2022-10-16T12:48:49.487Z,5.40
2022-10-16T12:51:31.863Z,5.50
2022-10-16T12:54:31.375Z,5.85
2022-10-16T12:57:35.547Z,7.00
2022-10-16T13:00:32.115Z,6.18
2022-10-16T13:03:46.025Z,5.97
2022-10-16T13:06:31.571Z,6.05
2022-10-16T13:09:33.216Z,6.00
2022-10-16T13:12:20.725Z,6.22
2022-10-16T13:15:08.432Z,6.22
2022-10-16T13:17:46.749Z,6.38
2022-10-16T13:20:29.321Z,5.88
2022-10-16T13:23:09.775Z,6.43
2022-10-16T13:25:50.937Z,6.60
2022-10-16T13:28:20.985Z,6.40
2022-10-16T13:30:57.022Z,6.78
2022-10-16T13:33:37.233Z,6.70
2022-10-16T13:36:04.988Z,6.00
2022-10-16T13:38:36.936Z,7.30
2022-10-16T13:41:18.549Z,6.55
2022-10-16T13:43:51.737Z,7.15
2022-10-16T13:46:23.585Z,6.85
2022-10-16T13:49:01.373Z,6.43
2022-10-16T13:51:30.190Z,6.63
2022-10-16T13:53:58.237Z,6.20
2022-10-16T13:56:30.781Z,6.97
2022-10-16T13:59:02.136Z,6.70
2022-10-16T14:01:33.067Z,6.90
2022-10-16T14:04:10.153Z,6.95
2022-10-16T14:06:41.325Z,7.20
2022-10-16T14:09:27.005Z,7.45
2022-10-16T14:11:58.529Z,7.35
2022-10-16T14:14:26.084Z,7.82
2022-10-16T14:16:53.195Z,8.00
2022-10-16T14:19:24.901Z,7.30
2022-10-16T14:21:53.074Z,6.60
2022-10-16T14:24:35.026Z,7.13
2022-10-16T14:27:03.348Z,7.32
2022-10-16T14:29:32.564Z,7.32
2022-10-16T14:32:05.229Z,7.38
2022-10-16T14:34:41.226Z,7.20
2022-10-16T14:37:29.752Z,6.95
2022-10-16T14:39:58.080Z,7.00
2022-10-16T14:42:26.582Z,7.25
2022-10-16T14:44:55.654Z,7.35
2022-10-16T14:47:27.947Z,6.70
2022-10-16T14:50:00.678Z,7.75
2022-10-16T14:52:27.497Z,8.15
2022-10-16T14:54:57.538Z,8.23
2022-10-16T14:57:27.929Z,6.80
2022-10-16T14:59:55.277Z,6.82
2022-10-16T15:02:23.306Z,7.70
2022-10-16T15:04:50.599Z,8.60
2022-10-16T15:07:17.456Z,7.55
2022-10-16T15:09:48.233Z,7.28
2022-10-16T15:12:17.224Z,7.78
2022-10-16T15:14:44.248Z,7.40
2022-10-16T15:17:11.931Z,8.50
2022-10-16T15:19:39.056Z,7.57
2022-10-16T15:22:05.873Z,7.95
2022-10-16T15:24:32.657Z,8.57
2022-10-16T15:26:59.469Z,9.25
2022-10-16T15:29:26.246Z,9.07
2022-10-16T15:31:53.401Z,8.75
2022-10-16T15:34:20.715Z,8.50
2022-10-16T15:36:48.080Z,8.32
2022-10-16T15:39:18.438Z,8.75
2022-10-16T15:41:51.491Z,8.43
2022-10-16T15:44:18.953Z,9.38
2022-10-16T15:46:45.741Z,9.77
2022-10-16T15:49:12.929Z,10.88
2022-10-16T15:51:42.646Z,10.57
2022-10-16T15:54:09.897Z,8.95
2022-10-16T15:56:37.890Z,10.13
2022-10-16T15:59:06.008Z,9.23
2022-10-16T16:01:36.926Z,9.77
2022-10-16T16:04:10.842Z,12.45
2022-10-16T16:06:40.354Z,9.82
2022-10-16T16:09:07.749Z,10.32
2022-10-16T16:11:38.541Z,10.15
2022-10-16T16:14:11.064Z,10.45
2022-10-16T16:16:39.121Z,10.82
2022-10-16T16:19:10.618Z,10.48
2022-10-16T16:21:39.579Z,11.23
2022-10-16T16:24:09.518Z,13.70
2022-10-16T16:26:40.935Z,11.32
2022-10-16T16:29:08.138Z,12.73
2022-10-16T16:31:35.847Z,12.65
2022-10-16T16:34:02.798Z,14.82
2022-10-16T16:36:30.217Z,14.27
2022-10-16T16:38:57.951Z,17.58
2022-10-16T16:41:28.229Z,15.32
2022-10-16T16:43:56.882Z,13.93
2022-10-16T16:46:24.045Z,13.10
2022-10-16T16:48:51.441Z,15.95
2022-10-16T16:51:20.498Z,13.90
2022-10-16T16:53:50.243Z,12.43
2022-10-16T16:56:17.741Z,14.63
2022-10-16T16:58:52.193Z,14.75
2022-10-16T17:01:21.069Z,14.60
2022-10-16T17:03:50.921Z,14.88
2022-10-16T17:06:20.961Z,15.38
2022-10-16T17:08:49.721Z,16.25
2022-10-16T17:11:22.257Z,15.38
2022-10-16T17:13:53.903Z,21.20
2022-10-16T17:16:25.488Z,18.98
2022-10-16T17:18:53.963Z,15.48
2022-10-16T17:21:21.193Z,16.52
2022-10-16T17:23:48.140Z,18.60
2022-10-16T17:26:17.270Z,20.77
2022-10-16T17:28:44.924Z,18.60
2022-10-16T17:31:15.504Z,18.25
2022-10-16T17:33:43.085Z,19.10
2022-10-16T17:36:11.912Z,20.05
2022-10-16T17:38:39.363Z,17.95
2022-10-16T17:41:17.042Z,18.45
2022-10-16T17:43:44.241Z,23.30
2022-10-16T17:46:12.458Z,23.05
2022-10-16T17:48:41.444Z,23.75
2022-10-16T17:51:09.521Z,24.50
2022-10-16T17:53:36.985Z,25.00
2022-10-16T17:56:09.371Z,29.83
2022-10-16T17:58:36.850Z,31.50
2022-10-16T18:01:16.014Z,24.27
2022-10-16T18:03:43.300Z,24.77
2022-10-16T18:06:10.458Z,21.98
2022-10-16T18:08:37.249Z,26.48
2022-10-16T18:11:05.002Z,23.58
2022-10-16T18:13:32.541Z,24.90
2022-10-16T18:16:12.009Z,20.85
2022-10-16T18:18:40.549Z,25.85
2022-10-16T18:21:09.610Z,19.92
2022-10-16T18:23:37.331Z,25.73
2022-10-16T18:26:05.914Z,23.17
2022-10-16T18:28:33.107Z,23.55
2022-10-16T18:31:02.629Z,27.17
2022-10-16T18:33:33.248Z,26.95
2022-10-16T18:36:08.812Z,28.08
2022-10-16T18:38:36.868Z,26.67
2022-10-16T18:41:05.638Z,23.02
2022-10-16T18:43:37.154Z,23.88
2022-10-16T18:46:10.689Z,25.75
2022-10-16T18:48:38.104Z,29.25
2022-10-16T18:51:13.089Z,29.95
2022-10-16T18:53:42.760Z,32.70
2022-10-16T18:56:11.106Z,26.75
2022-10-16T18:58:41.182Z,25.65
2022-10-16T19:01:11.336Z,19.60
2022-10-16T19:03:43.720Z,21.73
2022-10-16T19:06:14.402Z,21.17
2022-10-16T19:08:42.419Z,22.10
2022-10-16T19:11:12.846Z,20.85
2022-10-16T19:13:39.797Z,20.13
2022-10-16T19:16:20.957Z,28.95
2022-10-16T19:18:53.397Z,25.52
2022-10-16T19:21:20.624Z,20.08
2022-10-16T19:23:51.226Z,21.42
2022-10-16T19:26:19.515Z,22.13
2022-10-16T19:28:47.296Z,23.10
2022-10-16T19:31:17.536Z,23.13
2022-10-16T19:33:44.396Z,22.13
2022-10-16T19:36:12.524Z,21.13
2022-10-16T19:38:40.247Z,21.02
2022-10-16T19:41:09.300Z,22.35
2022-10-16T19:43:36.305Z,25.50
2022-10-16T19:46:08.791Z,21.85
2022-10-16T19:48:36.168Z,19.70
2022-10-16T19:51:03.948Z,20.05
2022-10-16T19:53:30.956Z,21.95
2022-10-16T19:55:59.109Z,21.08
2022-10-16T19:58:26.928Z,19.67
2022-10-16T20:00:54.945Z,21.85
2022-10-16T20:03:21.785Z,19.02
2022-10-16T20:05:52.985Z,23.67
2022-10-16T20:08:20.483Z,22.63
2022-10-16T20:10:52.608Z,21.27
2022-10-16T20:13:21.444Z,24.60
2022-10-16T20:15:49.596Z,23.98
2022-10-16T20:18:17.081Z,25.02
2022-10-16T20:20:48.493Z,26.92
2022-10-16T20:23:15.758Z,26.48
2022-10-16T20:25:43.581Z,23.58
2022-10-16T20:28:13.986Z,23.35
2022-10-16T20:30:44.270Z,26.98
2022-10-16T20:33:13.941Z,24.80
2022-10-16T20:35:42.986Z,26.92
2022-10-16T20:38:10.673Z,22.95
2022-10-16T20:40:39.510Z,26.05
2022-10-16T20:43:07.477Z,23.15
2022-10-16T20:45:34.289Z,22.20
2022-10-16T20:48:01.152Z,21.20
2022-10-16T20:50:31.101Z,22.88
2022-10-16T20:52:59.906Z,30.60
2022-10-16T20:55:27.930Z,33.85
2022-10-16T20:57:54.865Z,29.38
2022-10-16T21:00:22.092Z,25.13
2022-10-16T21:02:53.393Z,27.98
2022-10-16T21:05:20.740Z,29.23
2022-10-16T21:07:47.558Z,32.97
2022-10-16T21:10:14.405Z,24.73
2022-10-16T21:12:41.275Z,27.77
2022-10-16T21:15:14.808Z,26.30
2022-10-16T21:17:41.961Z,28.55
2022-10-16T21:20:09.611Z,24.30
2022-10-16T21:22:36.701Z,20.95
2022-10-16T21:25:03.925Z,19.60
2022-10-16T21:27:30.797Z,21.42
2022-10-16T21:29:57.743Z,22.60
2022-10-16T21:32:28.515Z,19.67
2022-10-16T21:34:55.478Z,27.40
2022-10-16T21:37:22.636Z,26.50
2022-10-16T21:39:49.504Z,24.98
2022-10-16T21:42:16.301Z,22.58
2022-10-16T21:44:43.064Z,24.08
2022-10-16T21:47:10.119Z,23.90
2022-10-16T21:49:36.927Z,23.77
2022-10-16T21:52:03.818Z,22.90
2022-10-16T21:54:30.639Z,19.85
2022-10-16T21:56:57.866Z,21.05
2022-10-16T21:59:24.666Z,20.88
2022-10-16T22:01:54.006Z,23.63
2022-10-16T22:04:20.780Z,23.52
2022-10-16T22:06:47.952Z,21.92
2022-10-16T22:09:16.038Z,20.02
2022-10-16T22:11:44.855Z,21.92
2022-10-16T22:14:14.665Z,22.73
2022-10-16T22:16:42.438Z,21.48
2022-10-16T22:19:09.639Z,19.23
2022-10-16T22:21:39.130Z,20.17
2022-10-16T22:24:06.951Z,19.77
2022-10-16T22:26:34.265Z,19.33
2022-10-16T22:29:01.246Z,18.73
2022-10-16T22:31:28.492Z,18.60
2022-10-16T22:33:57.453Z,17.45
2022-10-16T22:36:24.955Z,19.67
2022-10-16T22:38:52.251Z,19.17
2022-10-16T22:41:20.255Z,17.10
2022-10-16T22:43:48.737Z,18.17
2022-10-16T22:46:18.724Z,17.25
2022-10-16T22:48:45.970Z,15.73
2022-10-16T22:51:16.816Z,17.00
2022-10-16T22:53:45.270Z,16.73
2022-10-16T22:56:12.636Z,17.40
2022-10-16T22:58:40.129Z,19.67
2022-10-16T23:01:29.901Z,16.02
2022-10-16T23:03:57.208Z,15.07
2022-10-16T23:06:24.616Z,14.38
2022-10-16T23:08:53.488Z,14.68
2022-10-16T23:11:20.405Z,15.55
2022-10-16T23:13:48.477Z,14.15
2022-10-16T23:16:17.524Z,15.90
2022-10-16T23:18:45.816Z,14.23
2022-10-16T23:21:26.794Z,14.23
2022-10-16T23:23:54.799Z,13.88
2022-10-16T23:26:24.973Z,17.45
2022-10-16T23:28:52.862Z,16.10
2022-10-16T23:31:19.921Z,14.70
2022-10-16T23:33:47.190Z,13.80
2022-10-16T23:36:16.880Z,14.52
2022-10-16T23:38:43.694Z,15.77
2022-10-16T23:41:11.737Z,14.63
2022-10-16T23:43:39.213Z,17.67
2022-10-16T23:46:07.507Z,18.90
2022-10-16T23:48:34.781Z,19.05
2022-10-16T23:51:01.610Z,20.50
2022-10-16T23:53:28.407Z,18.52
2022-10-16T23:55:55.342Z,20.90
2022-10-16T23:58:22.215Z,18.75
